Time;durP1;ratioP1;P1;durP2;ratioP2;P2;SDS_P1;SDS_P2;PMS_P1;PMS_P2;Temp;Humidity;BMP_temperature;BMP_pressure;BME280_temperature;BME280_humidity;BME280_pressure;Samples;Min_cycle;Max_cycle;Signal;HPM_P1;HPM_P2
2024/04/22 00:00:21;;;;;;;22.88;21.35;;;;;;;;;;5523041;25;20257;-77
2024/04/22 00:02:47;;;;;;;23.05;21.63;;;;;;;;;;5523153;25;20239;-78
2024/04/22 00:05:16;;;;;;;22.80;21.33;;;;;;;;;;5522700;25;20293;-78
2024/04/22 00:07:44;;;;;;;21.65;20.35;;;;;;;;;;5523640;25;20228;-78
2024/04/22 00:10:12;;;;;;;22.10;20.80;;;;;;;;;;5522345;26;20358;-77
2024/04/22 00:12:39;;;;;;;20.98;19.77;;;;;;;;;;5523064;26;21151;-78
2024/04/22 00:15:08;;;;;;;21.67;20.33;;;;;;;;;;5522876;26;20239;-77
2024/04/22 00:17:36;;;;;;;22.23;20.75;;;;;;;;;;5522834;26;20224;-77
2024/04/22 00:20:05;;;;;;;22.53;21.23;;;;;;;;;;5522531;26;20231;-78
2024/04/22 00:22:31;;;;;;;22.23;20.73;;;;;;;;;;5522404;25;20488;-77
2024/04/22 00:25:00;;;;;;;22.27;20.90;;;;;;;;;;5525860;25;20824;-78
2024/04/22 00:27:28;;;;;;;21.40;19.92;;;;;;;;;;5523365;25;20254;-78
2024/04/22 00:29:56;;;;;;;21.98;20.50;;;;;;;;;;5522948;25;20267;-79
2024/04/22 00:32:23;;;;;;;22.33;20.70;;;;;;;;;;5488104;25;20241;-78
2024/04/22 00:34:54;;;;;;;21.70;20.40;;;;;;;;;;5486230;26;20233;-77
2024/04/22 00:37:20;;;;;;;22.05;20.75;;;;;;;;;;5486159;26;20291;-78
2024/04/22 00:39:49;;;;;;;22.17;20.53;;;;;;;;;;5486586;26;20294;-77
2024/04/22 00:42:15;;;;;;;22.25;20.70;;;;;;;;;;5486937;26;20478;-78
2024/04/22 00:44:44;;;;;;;21.08;19.88;;;;;;;;;;5512977;25;20248;-78
2024/04/22 00:47:10;;;;;;;22.67;20.83;;;;;;;;;;5505905;25;20230;-78
2024/04/22 00:49:39;;;;;;;22.67;21.05;;;;;;;;;;5486602;26;20280;-77
2024/04/22 00:52:08;;;;;;;21.77;20.58;;;;;;;;;;5487015;26;20282;-78
2024/04/22 00:54:37;;;;;;;22.05;20.65;;;;;;;;;;5510199;25;21159;-78
2024/04/22 00:57:04;;;;;;;21.27;20.00;;;;;;;;;;5523692;26;20238;-78
2024/04/22 00:59:32;;;;;;;21.77;20.48;;;;;;;;;;5522724;26;20727;-78
2024/04/22 01:01:59;;;;;;;21.70;20.40;;;;;;;;;;5522645;25;20285;-78
2024/04/22 01:04:29;;;;;;;21.63;20.30;;;;;;;;;;5522287;26;20228;-77
2024/04/22 01:06:55;;;;;;;21.73;20.40;;;;;;;;;;5522937;26;20292;-78
2024/04/22 01:09:26;;;;;;;21.58;20.38;;;;;;;;;;5521579;26;20236;-78
2024/04/22 01:11:56;;;;;;;21.90;20.60;;;;;;;;;;5522427;25;21116;-78
2024/04/22 01:14:23;;;;;;;22.10;20.75;;;;;;;;;;5522589;26;20233;-78
2024/04/22 01:16:56;;;;;;;22.38;21.08;;;;;;;;;;5525038;26;20633;-77
2024/04/22 01:19:22;;;;;;;22.45;20.98;;;;;;;;;;5525258;25;20224;-78
2024/04/22 01:21:56;;;;;;;21.42;20.10;;;;;;;;;;5524739;25;20252;-77
2024/04/22 01:24:22;;;;;;;21.75;20.40;;;;;;;;;;5526116;25;20229;-78
2024/04/22 01:26:51;;;;;;;22.50;20.92;;;;;;;;;;5525991;25;20627;-77
2024/04/22 01:29:17;;;;;;;21.95;20.55;;;;;;;;;;5525321;25;20225;-79
2024/04/22 01:31:46;;;;;;;21.98;20.58;;;;;;;;;;5513321;26;20241;-78
2024/04/22 01:34:12;;;;;;;22.65;21.15;;;;;;;;;;5489165;26;20752;-78
2024/04/22 01:36:42;;;;;;;21.95;20.55;;;;;;;;;;5499295;25;20254;-78
2024/04/22 01:39:10;;;;;;;21.85;20.45;;;;;;;;;;5525052;26;20881;-78
2024/04/22 01:41:39;;;;;;;22.75;21.30;;;;;;;;;;5503364;26;20270;-78
2024/04/22 01:44:05;;;;;;;21.55;20.23;;;;;;;;;;5496710;25;20272;-77
2024/04/22 01:46:34;;;;;;;22.38;20.95;;;;;;;;;;5488656;26;20229;-78
2024/04/22 01:49:00;;;;;;;21.10;19.90;;;;;;;;;;5488021;26;20228;-77
2024/04/22 01:51:28;;;;;;;21.83;20.58;;;;;;;;;;5488140;26;20271;-77
2024/04/22 01:53:55;;;;;;;20.75;19.40;;;;;;;;;;5487660;26;20271;-78
2024/04/22 01:56:26;;;;;;;21.20;20.00;;;;;;;;;;5488152;26;20241;-78
2024/04/22 01:58:53;;;;;;;21.50;20.10;;;;;;;;;;5491197;25;20275;-78
2024/04/22 02:01:22;;;;;;;22.52;21.02;;;;;;;;;;5524103;25;20596;-77
2024/04/22 02:03:48;;;;;;;22.25;20.90;;;;;;;;;;5524890;25;20270;-79
2024/04/22 02:06:17;;;;;;;21.30;20.05;;;;;;;;;;5524627;25;20335;-77
2024/04/22 02:08:43;;;;;;;23.17;21.67;;;;;;;;;;5523390;25;20254;-77
2024/04/22 02:11:12;;;;;;;22.00;20.63;;;;;;;;;;5523078;25;20235;-77
2024/04/22 02:13:41;;;;;;;22.13;20.63;;;;;;;;;;5523869;25;20244;-78
2024/04/22 02:16:10;;;;;;;22.30;20.80;;;;;;;;;;5495210;25;20737;-77
2024/04/22 02:18:36;;;;;;;23.27;21.77;;;;;;;;;;5486766;26;20555;-79
2024/04/22 02:21:05;;;;;;;21.90;20.50;;;;;;;;;;5498541;25;20240;-76
2024/04/22 02:23:31;;;;;;;21.83;20.52;;;;;;;;;;5525430;25;20224;-77
2024/04/22 02:26:00;;;;;;;22.80;21.20;;;;;;;;;;5524288;25;20297;-77
2024/04/22 02:28:26;;;;;;;22.08;20.77;;;;;;;;;;5523980;25;20266;-78
2024/04/22 02:30:57;;;;;;;21.38;19.90;;;;;;;;;;5525073;25;20219;-78
2024/04/22 02:33:23;;;;;;;21.52;20.33;;;;;;;;;;5524366;25;20259;-77
2024/04/22 02:35:53;;;;;;;22.10;20.80;;;;;;;;;;5524684;25;20265;-78
2024/04/22 02:38:19;;;;;;;25.48;23.42;;;;;;;;;;5523618;25;20274;-78
2024/04/22 02:40:48;;;;;;;21.85;20.52;;;;;;;;;;5524735;25;20352;-77
2024/04/22 02:43:14;;;;;;;22.63;21.17;;;;;;;;;;5523542;25;20299;-76
2024/04/22 02:45:43;;;;;;;21.83;20.45;;;;;;;;;;5524927;25;20227;-77
2024/04/22 02:48:11;;;;;;;22.02;20.83;;;;;;;;;;5523672;25;20254;-78
2024/04/22 02:50:40;;;;;;;21.27;20.08;;;;;;;;;;5525633;25;20225;-77
2024/04/22 02:53:06;;;;;;;21.38;19.98;;;;;;;;;;5524271;25;20742;-78
2024/04/22 02:55:34;;;;;;;22.77;21.42;;;;;;;;;;5525018;25;20258;-77
2024/04/22 02:58:01;;;;;;;21.42;20.15;;;;;;;;;;5523989;25;20254;-78
2024/04/22 03:00:29;;;;;;;21.50;20.20;;;;;;;;;;5523650;25;20243;-78
2024/04/22 03:02:56;;;;;;;22.50;20.80;;;;;;;;;;5524018;25;20239;-78
2024/04/22 03:05:27;;;;;;;21.83;20.52;;;;;;;;;;5524850;26;20247;-79
2024/04/22 03:07:53;;;;;;;21.92;20.63;;;;;;;;;;5487811;26;20268;-77
2024/04/22 03:10:21;;;;;;;23.50;21.83;;;;;;;;;;5487501;26;20720;-78
2024/04/22 03:12:48;;;;;;;22.70;21.20;;;;;;;;;;5487837;26;20587;-78
2024/04/22 03:15:17;;;;;;;22.50;21.10;;;;;;;;;;5517469;26;20285;-77
2024/04/22 03:17:43;;;;;;;23.13;21.73;;;;;;;;;;5524705;25;20257;-78
2024/04/22 03:20:12;;;;;;;22.92;21.35;;;;;;;;;;5524090;26;20228;-78
2024/04/22 03:22:41;;;;;;;25.33;23.35;;;;;;;;;;5524586;25;20299;-77
2024/04/22 03:25:10;;;;;;;24.58;22.48;;;;;;;;;;5524664;26;20225;-78
2024/04/22 03:27:36;;;;;;;23.52;22.10;;;;;;;;;;5523609;26;20276;-78
2024/04/22 03:30:04;;;;;;;24.00;22.40;;;;;;;;;;5524076;25;20263;-77
2024/04/22 03:32:30;;;;;;;23.75;22.25;;;;;;;;;;5523920;25;20287;-77
2024/04/22 03:34:59;;;;;;;23.17;21.77;;;;;;;;;;5524341;25;20274;-78
2024/04/22 03:37:28;;;;;;;25.27;23.25;;;;;;;;;;5524270;25;20258;-78
2024/04/22 03:39:56;;;;;;;23.53;22.13;;;;;;;;;;5522718;25;20262;-75
2024/04/22 03:42:25;;;;;;;23.88;22.38;;;;;;;;;;5523082;25;20532;-76
2024/04/22 03:44:54;;;;;;;24.33;22.58;;;;;;;;;;5523583;25;20592;-74
2024/04/22 03:50:19;;;;;;;24.02;22.40;;;;;;;;;;5446202;26;20226;-75
2024/04/22 03:52:47;;;;;;;23.77;22.25;;;;;;;;;;5505016;25;20311;-75
2024/04/22 03:55:18;;;;;;;25.08;23.38;;;;;;;;;;5523247;25;20592;-76
2024/04/22 03:57:47;;;;;;;24.95;23.35;;;;;;;;;;5523470;25;20228;-76
2024/04/22 04:00:18;;;;;;;24.05;22.50;;;;;;;;;;5522453;25;20271;-76
2024/04/22 04:02:44;;;;;;;24.85;23.25;;;;;;;;;;5522627;25;20231;-76
2024/04/22 04:05:13;;;;;;;25.20;23.40;;;;;;;;;;5522386;25;20307;-77
2024/04/22 04:07:39;;;;;;;23.88;22.27;;;;;;;;;;5524234;25;20230;-77
2024/04/22 04:10:08;;;;;;;23.90;22.30;;;;;;;;;;5522670;26;20239;-78
2024/04/22 04:12:36;;;;;;;23.95;22.38;;;;;;;;;;5523310;25;20240;-77
2024/04/22 04:15:07;;;;;;;23.52;22.00;;;;;;;;;;5523519;25;20220;-77
2024/04/22 04:17:34;;;;;;;24.83;23.13;;;;;;;;;;5522829;25;20277;-77
2024/04/22 04:20:02;;;;;;;25.35;23.75;;;;;;;;;;5492195;25;20327;-78
2024/04/22 04:22:28;;;;;;;24.73;23.13;;;;;;;;;;5514153;25;20240;-78
2024/04/22 04:24:57;;;;;;;25.65;23.80;;;;;;;;;;5522029;25;20309;-77
2024/04/22 04:27:23;;;;;;;24.98;23.38;;;;;;;;;;5522612;26;20682;-78
2024/04/22 04:29:54;;;;;;;25.77;23.88;;;;;;;;;;5519168;25;20296;-76
2024/04/22 04:32:21;;;;;;;25.42;23.52;;;;;;;;;;5521370;25;20235;-76
2024/04/22 04:34:53;;;;;;;23.75;22.17;;;;;;;;;;5521547;25;20227;-76
2024/04/22 04:37:19;;;;;;;25.85;23.83;;;;;;;;;;5521642;25;20692;-76
2024/04/22 04:39:48;;;;;;;24.65;23.05;;;;;;;;;;5521005;25;20657;-77
2024/04/22 04:42:14;;;;;;;25.00;23.10;;;;;;;;;;5520512;25;20301;-76
2024/04/22 04:44:42;;;;;;;25.92;24.13;;;;;;;;;;5521512;25;20335;-76
2024/04/22 04:47:11;;;;;;;25.50;23.70;;;;;;;;;;5521088;25;20219;-76
2024/04/22 04:49:40;;;;;;;26.55;24.65;;;;;;;;;;5521430;25;20232;-76
2024/04/22 04:52:06;;;;;;;26.85;25.05;;;;;;;;;;5524028;25;20252;-77
2024/04/22 04:54:35;;;;;;;24.63;23.02;;;;;;;;;;5525414;25;20231;-77
2024/04/22 04:57:01;;;;;;;28.13;26.08;;;;;;;;;;5524816;25;20732;-77
2024/04/22 04:59:30;;;;;;;27.67;25.65;;;;;;;;;;5524325;26;20597;-77
2024/04/22 05:01:56;;;;;;;27.65;25.60;;;;;;;;;;5524607;25;20240;-77
2024/04/22 05:04:28;;;;;;;27.45;25.48;;;;;;;;;;5524565;25;20227;-76
2024/04/22 05:06:54;;;;;;;28.67;26.38;;;;;;;;;;5524520;25;20687;-75
2024/04/22 05:09:23;;;;;;;28.52;26.33;;;;;;;;;;5524174;25;20236;-76
2024/04/22 05:11:49;;;;;;;28.42;26.08;;;;;;;;;;5524532;25;20276;-76
2024/04/22 05:14:18;;;;;;;29.33;26.83;;;;;;;;;;5512048;25;20233;-76
2024/04/22 05:16:44;;;;;;;27.80;25.90;;;;;;;;;;5486907;26;20333;-76
2024/04/22 05:19:13;;;;;;;28.02;26.13;;;;;;;;;;5486699;26;20228;-76
2024/04/22 05:21:44;;;;;;;27.73;25.73;;;;;;;;;;5487735;26;20559;-76
2024/04/22 05:24:13;;;;;;;28.33;26.05;;;;;;;;;;5487308;26;20285;-76
2024/04/22 05:26:40;;;;;;;27.65;25.65;;;;;;;;;;5487179;26;20220;-77
2024/04/22 05:29:09;;;;;;;27.70;25.80;;;;;;;;;;5487348;26;20223;-77
2024/04/22 05:31:35;;;;;;;28.45;26.45;;;;;;;;;;5487559;26;20722;-77
2024/04/22 05:36:51;;;;;;;29.48;26.92;;;;;;;;;;5527592;26;20332;-77
2024/04/22 05:39:20;;;;;;;27.15;25.17;;;;;;;;;;5522609;26;20236;-83
2024/04/22 05:41:48;;;;;;;28.33;26.08;;;;;;;;;;5527538;25;20628;-81
2024/04/22 05:44:18;;;;;;;26.83;24.92;;;;;;;;;;5528088;25;20228;-81
2024/04/22 05:46:44;;;;;;;27.60;25.60;;;;;;;;;;5528115;25;20246;-81
2024/04/22 05:49:13;;;;;;;27.52;25.52;;;;;;;;;;5527509;25;20278;-81
2024/04/22 05:51:41;;;;;;;26.75;24.77;;;;;;;;;;5527438;25;20239;-81
2024/04/22 05:54:13;;;;;;;27.50;25.20;;;;;;;;;;5527987;25;20224;-80
2024/04/22 05:56:39;;;;;;;28.05;26.05;;;;;;;;;;5528090;25;20552;-81
2024/04/22 05:59:09;;;;;;;26.92;25.02;;;;;;;;;;5526169;25;20298;-81
2024/04/22 06:01:36;;;;;;;26.02;24.02;;;;;;;;;;5526805;25;20630;-81
2024/04/22 06:04:05;;;;;;;25.90;24.23;;;;;;;;;;5526938;26;20284;-81
2024/04/22 06:06:31;;;;;;;25.25;23.55;;;;;;;;;;5524422;26;20389;-77
2024/04/22 06:09:00;;;;;;;26.20;24.30;;;;;;;;;;5524318;26;20228;-77
2024/04/22 06:11:30;;;;;;;27.75;25.27;;;;;;;;;;5524030;25;20309;-77
2024/04/22 06:13:59;;;;;;;25.73;23.92;;;;;;;;;;5524465;26;20697;-77
2024/04/22 06:16:26;;;;;;;26.05;24.35;;;;;;;;;;5524537;26;20229;-76
2024/04/22 06:18:55;;;;;;;24.75;23.05;;;;;;;;;;5523128;26;20239;-77
2024/04/22 06:21:24;;;;;;;26.23;24.27;;;;;;;;;;5523758;25;20282;-77
2024/04/22 06:23:53;;;;;;;25.40;23.80;;;;;;;;;;5524316;26;20269;-78
2024/04/22 06:26:20;;;;;;;24.45;22.75;;;;;;;;;;5523202;25;20247;-75
2024/04/22 06:28:57;;;;;;;24.98;23.33;;;;;;;;;;5488900;26;20236;-78
2024/04/22 06:31:31;;;;;;;24.67;23.15;;;;;;;;;;5516627;25;20857;-79
2024/04/22 06:36:45;;;;;;;25.92;23.88;;;;;;;;;;5487021;26;20721;-78
2024/04/22 06:39:14;;;;;;;24.13;22.55;;;;;;;;;;5486998;26;20233;-78
2024/04/22 06:41:44;;;;;;;24.88;23.25;;;;;;;;;;5487332;26;20292;-77
2024/04/22 06:44:20;;;;;;;23.88;22.38;;;;;;;;;;5507811;26;20249;-77
2024/04/22 06:47:13;;;;;;;24.27;22.57;;;;;;;;;;5523213;26;20276;-76
2024/04/22 06:49:43;;;;;;;24.30;22.50;;;;;;;;;;5522369;25;20555;-77
2024/04/22 06:52:17;;;;;;;23.00;21.60;;;;;;;;;;5521290;25;20517;-78
2024/04/22 06:54:45;;;;;;;22.97;21.53;;;;;;;;;;5520960;25;20472;-77
2024/04/22 06:57:15;;;;;;;23.40;21.90;;;;;;;;;;5524370;25;20485;-77
2024/04/22 06:59:46;;;;;;;22.97;21.67;;;;;;;;;;5522556;26;20818;-78
2024/04/22 07:05:28;;;;;;;25.33;23.63;;;;;;;;;;5491125;26;20555;-77
2024/04/22 07:07:56;;;;;;;24.15;22.65;;;;;;;;;;5523250;25;20472;-78
2024/04/22 07:10:25;;;;;;;21.73;20.43;;;;;;;;;;5546766;25;20233;-77
2024/04/22 07:12:52;;;;;;;24.15;22.60;;;;;;;;;;5522132;25;20449;-76
2024/04/22 07:15:23;;;;;;;24.65;22.88;;;;;;;;;;5521871;25;20255;-81
2024/04/22 07:17:50;;;;;;;24.55;22.70;;;;;;;;;;5523931;25;21000;-79
2024/04/22 07:20:19;;;;;;;24.57;23.07;;;;;;;;;;5524217;25;20225;-79
2024/04/22 07:22:47;;;;;;;22.35;21.05;;;;;;;;;;5524979;25;20469;-79
2024/04/22 07:25:20;;;;;;;22.90;21.70;;;;;;;;;;5527938;25;20271;-80
2024/04/22 07:27:47;;;;;;;23.65;22.25;;;;;;;;;;5559904;25;20226;-78
2024/04/22 07:30:20;;;;;;;24.45;22.75;;;;;;;;;;5527219;25;20236;-78
2024/04/22 07:32:50;;;;;;;24.55;23.15;;;;;;;;;;5524610;25;20282;-81
2024/04/22 07:35:19;;;;;;;25.38;24.13;;;;;;;;;;5520403;25;20231;-80
2024/04/22 07:37:48;;;;;;;24.38;22.98;;;;;;;;;;5517424;25;20240;-75
2024/04/22 07:40:19;;;;;;;25.25;23.75;;;;;;;;;;5521004;25;20256;-74
2024/04/22 07:42:46;;;;;;;23.90;22.50;;;;;;;;;;5519706;25;20287;-74
2024/04/22 07:45:16;;;;;;;24.40;22.90;;;;;;;;;;5500472;26;20241;-73
2024/04/22 07:47:42;;;;;;;22.67;21.37;;;;;;;;;;5517795;25;20517;-73
2024/04/22 07:53:21;;;;;;;24.03;22.73;;;;;;;;;;5521888;25;20484;-75
2024/04/22 07:55:51;;;;;;;25.13;23.63;;;;;;;;;;5519038;25;20584;-76
2024/04/22 07:58:21;;;;;;;23.38;21.98;;;;;;;;;;5501664;25;20454;-75
2024/04/22 08:00:49;;;;;;;23.30;21.88;;;;;;;;;;5508309;26;20224;-74
2024/04/22 08:03:21;;;;;;;23.20;21.90;;;;;;;;;;5520330;25;20796;-75
2024/04/22 08:05:47;;;;;;;22.10;20.80;;;;;;;;;;5520280;25;20500;-74
2024/04/22 08:08:24;;;;;;;23.17;21.70;;;;;;;;;;5520516;25;20868;-75
2024/04/22 08:10:51;;;;;;;19.10;17.90;;;;;;;;;;5519878;25;20556;-76
2024/04/22 08:13:22;;;;;;;19.43;18.23;;;;;;;;;;5521775;25;20498;-75
2024/04/22 08:15:52;;;;;;;19.73;18.43;;;;;;;;;;5521260;26;20510;-75
2024/04/22 08:18:23;;;;;;;19.50;18.30;;;;;;;;;;5493363;25;20499;-76
2024/04/22 08:20:49;;;;;;;20.57;19.27;;;;;;;;;;5515001;26;20526;-75
2024/04/22 08:23:23;;;;;;;19.37;18.10;;;;;;;;;;5521666;25;20567;-74
2024/04/22 08:25:58;;;;;;;19.57;18.37;;;;;;;;;;5522985;25;20449;-74
2024/04/22 08:28:28;;;;;;;18.83;17.63;;;;;;;;;;5524969;25;20491;-75
2024/04/22 08:31:06;;;;;;;20.30;19.00;;;;;;;;;;5524971;25;20454;-75
2024/04/22 08:33:38;;;;;;;19.47;18.13;;;;;;;;;;5521921;25;20966;-75
2024/04/22 08:36:07;;;;;;;17.83;16.63;;;;;;;;;;5528880;25;20515;-79
2024/04/22 08:48:07;;;;;;;18.30;17.10;;;;;;;;;;5455204;26;20476;-80
2024/04/22 08:50:37;;;;;;;18.17;16.97;;;;;;;;;;5420113;26;20505;-80
2024/04/22 08:53:06;;;;;;;19.33;18.03;;;;;;;;;;5419371;26;20485;-76
2024/04/22 08:55:32;;;;;;;19.80;18.20;;;;;;;;;;5414598;26;21474;-75
2024/04/22 08:58:01;;;;;;;20.03;18.53;;;;;;;;;;5415261;26;20815;-75
2024/04/22 09:00:27;;;;;;;19.60;18.20;;;;;;;;;;5415452;26;20446;-76
2024/04/22 09:02:55;;;;;;;20.60;19.30;;;;;;;;;;5414976;26;20425;-75
2024/04/22 09:05:23;;;;;;;20.80;19.30;;;;;;;;;;5415223;26;20455;-75
2024/04/22 09:07:58;;;;;;;20.60;19.10;;;;;;;;;;5415597;26;20442;-75
2024/04/22 09:10:24;;;;;;;19.30;18.00;;;;;;;;;;5415463;26;20961;-75
2024/04/22 09:12:57;;;;;;;20.03;18.63;;;;;;;;;;5415195;26;20589;-75
2024/04/22 09:15:23;;;;;;;20.67;19.17;;;;;;;;;;5414777;26;20433;-75
2024/04/22 09:17:52;;;;;;;20.00;18.60;;;;;;;;;;5415222;26;20572;-75
2024/04/22 09:20:18;;;;;;;20.10;18.60;;;;;;;;;;5414980;26;20433;-74
2024/04/22 09:22:47;;;;;;;19.23;17.93;;;;;;;;;;5414810;26;20441;-75
2024/04/22 09:25:16;;;;;;;19.27;17.97;;;;;;;;;;5415237;26;20492;-75
2024/04/22 09:27:47;;;;;;;18.93;17.63;;;;;;;;;;5414966;26;21282;-76
2024/04/22 09:30:13;;;;;;;18.97;17.57;;;;;;;;;;5414747;26;20517;-75
2024/04/22 09:32:45;;;;;;;19.43;18.13;;;;;;;;;;5414873;26;20941;-74
2024/04/22 09:35:13;;;;;;;18.70;17.37;;;;;;;;;;5413977;26;20494;-75
2024/04/22 09:37:42;;;;;;;18.97;17.47;;;;;;;;;;5413579;26;20490;-75
2024/04/22 09:40:10;;;;;;;18.60;17.30;;;;;;;;;;5414538;26;20454;-74
2024/04/22 09:42:43;;;;;;;19.33;17.97;;;;;;;;;;5403724;26;20247;-75
2024/04/22 09:45:09;;;;;;;18.80;17.40;;;;;;;;;;5407273;26;20823;-76
2024/04/22 09:47:39;;;;;;;18.43;17.13;;;;;;;;;;5405679;26;20541;-75
2024/04/22 09:50:05;;;;;;;18.17;16.87;;;;;;;;;;5379170;26;20478;-74
2024/04/22 09:52:35;;;;;;;18.27;16.93;;;;;;;;;;5378420;26;20561;-74
2024/04/22 09:55:01;;;;;;;17.60;16.40;;;;;;;;;;5390495;26;20501;-75
2024/04/22 09:57:31;;;;;;;18.10;16.70;;;;;;;;;;5414861;26;20505;-74
2024/04/22 10:00:01;;;;;;;18.07;16.77;;;;;;;;;;5414542;26;21577;-75
2024/04/22 10:02:30;;;;;;;17.53;16.13;;;;;;;;;;5414863;26;20470;-75
2024/04/22 10:04:56;;;;;;;17.47;16.27;;;;;;;;;;5414062;26;20767;-75
2024/04/22 10:07:25;;;;;;;18.00;16.60;;;;;;;;;;5414681;26;20438;-75
2024/04/22 10:09:51;;;;;;;19.10;17.70;;;;;;;;;;5414603;26;20465;-75
2024/04/22 10:12:27;;;;;;;18.20;16.80;;;;;;;;;;5414348;26;21092;-75
2024/04/22 10:15:05;;;;;;;19.50;18.00;;;;;;;;;;5414175;26;20529;-75
2024/04/22 10:17:34;;;;;;;18.07;16.77;;;;;;;;;;5414545;26;20446;-75
2024/04/22 10:20:00;;;;;;;18.67;17.27;;;;;;;;;;5414593;26;20506;-75
2024/04/22 10:22:32;;;;;;;19.50;17.90;;;;;;;;;;5415159;26;20591;-75
2024/04/22 10:24:58;;;;;;;19.10;17.80;;;;;;;;;;5414068;26;20514;-75
2024/04/22 10:27:27;;;;;;;19.73;18.33;;;;;;;;;;5413988;26;20448;-75
2024/04/22 10:29:53;;;;;;;19.03;17.43;;;;;;;;;;5414362;26;20494;-75
2024/04/22 10:32:24;;;;;;;18.90;17.50;;;;;;;;;;5415040;26;20549;-75
2024/04/22 10:34:50;;;;;;;18.20;16.90;;;;;;;;;;5413275;26;20861;-75
2024/04/22 10:37:19;;;;;;;18.60;17.30;;;;;;;;;;5414715;26;20431;-75
2024/04/22 10:39:45;;;;;;;18.97;17.50;;;;;;;;;;5413938;26;20505;-74
2024/04/22 10:42:14;;;;;;;18.87;17.43;;;;;;;;;;5393116;26;20445;-74
2024/04/22 10:44:41;;;;;;;19.10;17.70;;;;;;;;;;5378768;26;20444;-77
2024/04/22 10:47:11;;;;;;;18.37;17.00;;;;;;;;;;5378823;26;20447;-74
2024/04/22 10:49:41;;;;;;;18.70;17.20;;;;;;;;;;5378709;26;20475;-76
2024/04/22 10:52:09;;;;;;;19.07;17.73;;;;;;;;;;5406039;26;20549;-75
2024/04/22 10:54:35;;;;;;;18.33;17.03;;;;;;;;;;5413402;26;20431;-77
2024/04/22 10:57:04;;;;;;;19.50;17.80;;;;;;;;;;5398280;26;20445;-74
2024/04/22 10:59:30;;;;;;;18.77;17.37;;;;;;;;;;5377525;26;20828;-75
2024/04/22 11:01:59;;;;;;;18.53;17.23;;;;;;;;;;5377890;26;20553;-75
2024/04/22 11:04:25;;;;;;;19.60;18.20;;;;;;;;;;5381401;26;20457;-74
2024/04/22 11:06:56;;;;;;;18.67;17.27;;;;;;;;;;5413447;26;21017;-74
2024/04/22 11:09:22;;;;;;;18.43;17.13;;;;;;;;;;5412292;26;20503;-75
2024/04/22 11:11:51;;;;;;;18.20;16.90;;;;;;;;;;5413175;26;20571;-74
2024/04/22 11:14:17;;;;;;;19.03;17.53;;;;;;;;;;5412203;26;20490;-74
2024/04/22 11:16:46;;;;;;;19.23;17.83;;;;;;;;;;5413074;26;20430;-74
2024/04/22 11:19:12;;;;;;;18.60;17.30;;;;;;;;;;5412643;26;20991;-74
2024/04/22 11:21:41;;;;;;;18.30;17.00;;;;;;;;;;5413030;26;20513;-74
2024/04/22 11:24:09;;;;;;;18.37;17.07;;;;;;;;;;5412068;26;20783;-74
2024/04/22 11:26:39;;;;;;;18.50;16.90;;;;;;;;;;5412852;26;20564;-74
2024/04/22 11:29:05;;;;;;;19.10;17.40;;;;;;;;;;5381994;26;20592;-75
2024/04/22 11:31:35;;;;;;;19.00;17.10;;;;;;;;;;5413178;26;21286;-74
2024/04/22 11:34:01;;;;;;;18.33;16.93;;;;;;;;;;5411991;26;20443;-75
2024/04/22 11:36:34;;;;;;;18.70;17.30;;;;;;;;;;5412806;26;20595;-74
2024/04/22 11:39:11;;;;;;;18.80;17.40;;;;;;;;;;5412993;26;20773;-74
2024/04/22 11:41:39;;;;;;;19.70;18.10;;;;;;;;;;5412555;26;20525;-74
2024/04/22 11:44:05;;;;;;;19.20;17.70;;;;;;;;;;5411186;26;20534;-75
2024/04/22 11:46:34;;;;;;;18.40;16.70;;;;;;;;;;5412664;26;21037;-74
2024/04/22 11:49:00;;;;;;;19.23;17.70;;;;;;;;;;5412304;26;20527;-74
2024/04/22 11:51:29;;;;;;;18.80;17.40;;;;;;;;;;5412511;26;20455;-74
2024/04/22 11:53:55;;;;;;;18.17;16.77;;;;;;;;;;5411909;26;20439;-74
2024/04/22 11:56:31;;;;;;;19.00;17.40;;;;;;;;;;5413025;26;20590;-80
2024/04/22 11:58:57;;;;;;;18.17;16.77;;;;;;;;;;5415162;26;20568;-80
2024/04/22 12:01:26;;;;;;;18.73;17.43;;;;;;;;;;5416072;26;20466;-84
2024/04/22 12:03:52;;;;;;;18.03;16.73;;;;;;;;;;5414448;26;20519;-77
2024/04/22 12:06:21;;;;;;;18.20;16.80;;;;;;;;;;5407482;26;20514;-78
2024/04/22 12:08:47;;;;;;;18.67;17.37;;;;;;;;;;5408857;26;20797;-78
2024/04/22 12:11:16;;;;;;;18.77;17.43;;;;;;;;;;5377427;26;20820;-75
2024/04/22 12:13:45;;;;;;;18.13;16.73;;;;;;;;;;5389809;26;20530;-75
2024/04/22 12:16:13;;;;;;;17.80;16.50;;;;;;;;;;5386793;26;20479;-84
2024/04/22 12:18:39;;;;;;;17.87;16.57;;;;;;;;;;5408980;26;20478;-74
2024/04/22 12:21:08;;;;;;;18.83;17.50;;;;;;;;;;5413364;26;20547;-78
2024/04/22 12:23:34;;;;;;;18.50;17.20;;;;;;;;;;5413099;26;20441;-75
2024/04/22 12:26:03;;;;;;;19.00;17.43;;;;;;;;;;5384148;26;20916;-77
2024/04/22 12:28:29;;;;;;;18.73;17.13;;;;;;;;;;5407981;26;20470;-78
2024/04/22 12:31:00;;;;;;;21.47;19.30;;;;;;;;;;5393642;26;20440;-75
2024/04/22 12:33:26;;;;;;;18.23;16.80;;;;;;;;;;5376930;26;20431;-77
2024/04/22 12:35:55;;;;;;;17.67;16.27;;;;;;;;;;5376836;26;20431;-76
2024/04/22 12:38:21;;;;;;;17.53;16.23;;;;;;;;;;5376463;26;21039;-75
2024/04/22 12:40:50;;;;;;;18.90;17.40;;;;;;;;;;5399688;26;21020;-76
2024/04/22 12:43:16;;;;;;;19.17;17.77;;;;;;;;;;5410829;26;20520;-76
2024/04/22 12:45:45;;;;;;;19.03;17.63;;;;;;;;;;5411452;26;20501;-76
2024/04/22 12:51:01;;;;;;;18.67;17.07;;;;;;;;;;5413910;26;21486;-75
2024/04/22 12:53:29;;;;;;;18.67;17.27;;;;;;;;;;5411104;26;20620;-76
2024/04/22 12:55:58;;;;;;;19.40;17.70;;;;;;;;;;5411562;26;20499;-76
2024/04/22 12:58:27;;;;;;;19.70;18.10;;;;;;;;;;5411394;26;20525;-76
2024/04/22 13:00:55;;;;;;;18.57;17.20;;;;;;;;;;5410897;26;20440;-76
2024/04/22 13:03:26;;;;;;;18.20;16.80;;;;;;;;;;5410774;26;20480;-76
2024/04/22 13:05:55;;;;;;;19.07;17.57;;;;;;;;;;5411149;26;20873;-76
2024/04/22 13:08:21;;;;;;;18.90;17.40;;;;;;;;;;5411015;26;20533;-75
2024/04/22 13:10:50;;;;;;;18.77;17.47;;;;;;;;;;5412467;26;20466;-76
2024/04/22 13:13:16;;;;;;;18.93;17.43;;;;;;;;;;5414288;26;20505;-76
2024/04/22 13:15:45;;;;;;;17.40;16.20;;;;;;;;;;5415254;26;20476;-76
2024/04/22 13:18:14;;;;;;;18.67;17.13;;;;;;;;;;5414603;26;20543;-76
2024/04/22 13:20:45;;;;;;;19.37;18.07;;;;;;;;;;5415073;26;20441;-75
2024/04/22 13:23:11;;;;;;;19.03;17.63;;;;;;;;;;5413903;26;21040;-76
2024/04/22 13:25:39;;;;;;;18.93;17.63;;;;;;;;;;5415114;26;20483;-76
2024/04/22 13:28:06;;;;;;;18.63;17.33;;;;;;;;;;5414051;26;20465;-76
2024/04/22 13:30:34;;;;;;;19.37;17.90;;;;;;;;;;5414040;26;20809;-75
2024/04/22 13:33:01;;;;;;;17.70;16.40;;;;;;;;;;5413774;26;20438;-76
2024/04/22 13:35:29;;;;;;;18.27;16.87;;;;;;;;;;5414748;26;20949;-76
2024/04/22 13:37:58;;;;;;;18.67;17.17;;;;;;;;;;5414892;26;20435;-76
2024/04/22 13:40:27;;;;;;;18.77;17.37;;;;;;;;;;5414676;26;20442;-76
2024/04/22 13:42:53;;;;;;;19.40;17.80;;;;;;;;;;5414117;26;20775;-77
2024/04/22 13:45:22;;;;;;;18.67;17.27;;;;;;;;;;5413873;26;20454;-76
2024/04/22 13:47:48;;;;;;;18.57;17.17;;;;;;;;;;5414910;26;20440;-76
2024/04/22 13:50:16;;;;;;;18.87;17.37;;;;;;;;;;5414415;26;20443;-76
2024/04/22 13:52:42;;;;;;;18.70;17.20;;;;;;;;;;5415105;26;20462;-77
2024/04/22 13:55:14;;;;;;;19.83;18.10;;;;;;;;;;5413910;26;20515;-75
2024/04/22 13:57:40;;;;;;;18.13;16.63;;;;;;;;;;5414542;26;20450;-75
2024/04/22 14:00:10;;;;;;;19.47;17.90;;;;;;;;;;5381148;26;20822;-75
2024/04/22 14:02:36;;;;;;;18.83;17.23;;;;;;;;;;5378873;26;21347;-76
2024/04/22 14:05:05;;;;;;;19.13;17.63;;;;;;;;;;5377924;26;20456;-76
2024/04/22 14:07:31;;;;;;;19.67;18.10;;;;;;;;;;5378401;26;20497;-76
2024/04/22 14:10:00;;;;;;;20.00;18.30;;;;;;;;;;5378135;26;20581;-76
2024/04/22 14:12:28;;;;;;;20.17;18.40;;;;;;;;;;5378573;26;21023;-76
2024/04/22 14:14:57;;;;;;;19.27;17.77;;;;;;;;;;5377933;26;20495;-74
2024/04/22 14:17:23;;;;;;;18.67;17.37;;;;;;;;;;5378237;26;20444;-75
2024/04/22 14:19:52;;;;;;;19.90;18.50;;;;;;;;;;5377418;26;20499;-76
2024/04/22 14:22:18;;;;;;;18.67;17.37;;;;;;;;;;5377616;26;20493;-75
2024/04/22 14:24:46;;;;;;;19.27;17.87;;;;;;;;;;5377892;26;20553;-75
2024/04/22 14:27:12;;;;;;;18.30;17.00;;;;;;;;;;5379674;26;20492;-76
2024/04/22 14:29:43;;;;;;;19.60;18.10;;;;;;;;;;5413351;26;20450;-76
2024/04/22 14:32:10;;;;;;;18.47;17.13;;;;;;;;;;5413770;26;21457;-75
2024/04/22 14:34:38;;;;;;;19.30;18.00;;;;;;;;;;5413451;26;20554;-76
2024/04/22 14:37:05;;;;;;;19.37;17.93;;;;;;;;;;5414321;26;20450;-76
2024/04/22 14:39:34;;;;;;;19.40;18.00;;;;;;;;;;5414011;26;20795;-76
2024/04/22 14:42:00;;;;;;;20.10;18.60;;;;;;;;;;5414110;26;20510;-73
2024/04/22 14:44:28;;;;;;;20.60;19.00;;;;;;;;;;5413884;26;20644;-76
2024/04/22 14:46:57;;;;;;;21.00;19.60;;;;;;;;;;5414180;26;20484;-75
2024/04/22 14:49:26;;;;;;;20.33;18.70;;;;;;;;;;5413757;26;20528;-76